sensor_id;sensor_type;location;lat;lon;timestamp;pressure;altitude;pressure_sealevel;temperature;humidity
35224;BME280;21367;51.930;8.112;2022-10-16T00:05:00;100496.84;;;13.09;100.00
35224;BME280;21367;51.930;8.112;2022-10-16T00:10:06;100497.06;;;13.17;100.00
35224;BME280;21367;51.930;8.112;2022-10-16T00:15:10;100500.25;;;13.08;100.00
35224;BME280;21367;51.930;8.112;2022-10-16T00:20:14;100505.06;;;12.96;100.00
35224;BME280;21367;51.930;8.112;2022-10-16T00:25:20;100507.78;;;13.01;100.00
35224;BME280;21367;51.930;8.112;2022-10-16T00:30:24;100513.13;;;13.07;100.00
35224;BME280;21367;51.930;8.112;2022-10-16T00:35:28;100510.81;;;12.87;100.00
35224;BME280;21367;51.930;8.112;2022-10-16T00:40:34;100510.44;;;12.73;100.00
35224;BME280;21367;51.930;8.112;2022-10-16T00:45:38;100510.19;;;12.66;100.00
35224;BME280;21367;51.930;8.112;2022-10-16T00:50:42;100504.25;;;12.68;100.00
35224;BME280;21367;51.930;8.112;2022-10-16T00:55:49;100511.19;;;12.42;100.00
35224;BME280;21367;51.930;8.112;2022-10-16T01:00:52;100516.72;;;12.55;100.00
35224;BME280;21367;51.930;8.112;2022-10-16T01:06:14;100529.94;;;12.65;100.00
35224;BME280;21367;51.930;8.112;2022-10-16T01:11:31;100518.81;;;12.66;100.00
35224;BME280;21367;51.930;8.112;2022-10-16T01:16:40;100521.44;;;12.68;100.00
35224;BME280;21367;51.930;8.112;2022-10-16T01:21:47;100528.06;;;12.60;100.00
35224;BME280;21367;51.930;8.112;2022-10-16T01:27:13;100528.78;;;12.56;100.00
35224;BME280;21367;51.930;8.112;2022-10-16T01:32:24;100534.59;;;12.48;100.00
35224;BME280;21367;51.930;8.112;2022-10-16T01:37:34;100544.47;;;12.35;100.00
35224;BME280;21367;51.930;8.112;2022-10-16T01:42:47;100541.19;;;12.40;100.00
35224;BME280;21367;51.930;8.112;2022-10-16T01:47:52;100533.75;;;12.22;100.00
35224;BME280;21367;51.930;8.112;2022-10-16T01:52:57;100532.72;;;12.17;100.00
35224;BME280;21367;51.930;8.112;2022-10-16T01:58:07;100537.25;;;11.99;100.00
35224;BME280;21367;51.930;8.112;2022-10-16T02:03:14;100537.94;;;11.93;100.00
35224;BME280;21367;51.930;8.112;2022-10-16T02:08:19;100534.28;;;11.87;100.00
35224;BME280;21367;51.930;8.112;2022-10-16T02:13:31;100537.47;;;11.81;100.00
35224;BME280;21367;51.930;8.112;2022-10-16T02:18:36;100537.44;;;11.79;100.00
35224;BME280;21367;51.930;8.112;2022-10-16T02:23:45;100535.28;;;11.66;100.00
35224;BME280;21367;51.930;8.112;2022-10-16T02:28:57;100542.59;;;11.55;100.00
35224;BME280;21367;51.930;8.112;2022-10-16T02:34:06;100535.75;;;11.56;100.00
35224;BME280;21367;51.930;8.112;2022-10-16T02:39:13;100545.34;;;11.60;100.00
35224;BME280;21367;51.930;8.112;2022-10-16T02:44:20;100547.97;;;11.62;100.00
35224;BME280;21367;51.930;8.112;2022-10-16T02:49:23;100541.47;;;11.47;100.00
35224;BME280;21367;51.930;8.112;2022-10-16T02:54:27;100545.28;;;11.58;100.00
35224;BME280;21367;51.930;8.112;2022-10-16T02:59:33;100554.56;;;11.53;100.00
35224;BME280;21367;51.930;8.112;2022-10-16T03:04:37;100560.22;;;11.69;100.00
35224;BME280;21367;51.930;8.112;2022-10-16T03:09:41;100554.06;;;11.88;100.00
35224;BME280;21367;51.930;8.112;2022-10-16T03:14:47;100548.28;;;11.95;100.00
35224;BME280;21367;51.930;8.112;2022-10-16T03:19:51;100548.91;;;11.88;100.00
35224;BME280;21367;51.930;8.112;2022-10-16T03:24:55;100541.63;;;11.76;100.00
35224;BME280;21367;51.930;8.112;2022-10-16T03:30:02;100538.94;;;11.73;100.00
35224;BME280;21367;51.930;8.112;2022-10-16T03:35:07;100551.16;;;11.78;100.00
35224;BME280;21367;51.930;8.112;2022-10-16T03:40:11;100546.78;;;11.77;100.00
35224;BME280;21367;51.930;8.112;2022-10-16T03:45:17;100555.16;;;11.94;100.00
35224;BME280;21367;51.930;8.112;2022-10-16T03:50:21;100552.63;;;11.96;100.00
35224;BME280;21367;51.930;8.112;2022-10-16T03:55:24;100555.84;;;12.16;100.00
35224;BME280;21367;51.930;8.112;2022-10-16T04:00:31;100546.34;;;12.13;100.00
35224;BME280;21367;51.930;8.112;2022-10-16T04:05:35;100539.50;;;12.15;100.00
35224;BME280;21367;51.930;8.112;2022-10-16T04:10:38;100549.91;;;12.18;100.00
35224;BME280;21367;51.930;8.112;2022-10-16T04:15:45;100556.13;;;12.23;100.00
35224;BME280;21367;51.930;8.112;2022-10-16T04:20:49;100572.00;;;12.37;100.00
35224;BME280;21367;51.930;8.112;2022-10-16T04:25:53;100565.22;;;12.39;100.00
35224;BME280;21367;51.930;8.112;2022-10-16T04:30:59;100573.69;;;12.35;100.00
35224;BME280;21367;51.930;8.112;2022-10-16T04:36:04;100577.44;;;12.45;100.00
35224;BME280;21367;51.930;8.112;2022-10-16T04:41:07;100587.56;;;12.40;100.00
35224;BME280;21367;51.930;8.112;2022-10-16T04:46:14;100576.66;;;12.47;100.00
35224;BME280;21367;51.930;8.112;2022-10-16T04:51:18;100592.53;;;12.34;100.00
35224;BME280;21367;51.930;8.112;2022-10-16T04:56:21;100601.06;;;12.32;100.00
35224;BME280;21367;51.930;8.112;2022-10-16T05:01:28;100597.66;;;12.33;100.00
35224;BME280;21367;51.930;8.112;2022-10-16T05:06:31;100605.69;;;12.16;100.00
35224;BME280;21367;51.930;8.112;2022-10-16T05:11:35;100603.75;;;12.35;100.00
35224;BME280;21367;51.930;8.112;2022-10-16T05:16:41;100610.38;;;12.28;100.00
35224;BME280;21367;51.930;8.112;2022-10-16T05:21:45;100616.25;;;12.24;100.00
35224;BME280;21367;51.930;8.112;2022-10-16T05:26:49;100612.81;;;12.23;100.00
35224;BME280;21367;51.930;8.112;2022-10-16T05:31:56;100612.63;;;12.19;100.00
35224;BME280;21367;51.930;8.112;2022-10-16T05:36:59;100621.84;;;12.12;100.00
35224;BME280;21367;51.930;8.112;2022-10-16T05:42:03;100635.44;;;12.32;100.00
35224;BME280;21367;51.930;8.112;2022-10-16T05:47:10;100635.34;;;12.29;100.00
35224;BME280;21367;51.930;8.112;2022-10-16T05:52:15;100646.50;;;12.30;100.00
35224;BME280;21367;51.930;8.112;2022-10-16T05:57:19;100643.97;;;12.31;100.00
35224;BME280;21367;51.930;8.112;2022-10-16T06:02:25;100651.00;;;12.35;100.00
35224;BME280;21367;51.930;8.112;2022-10-16T06:07:28;100657.03;;;12.36;100.00
35224;BME280;21367;51.930;8.112;2022-10-16T06:12:32;100663.38;;;12.45;100.00
35224;BME280;21367;51.930;8.112;2022-10-16T06:17:38;100663.97;;;12.64;100.00
35224;BME280;21367;51.930;8.112;2022-10-16T06:22:43;100667.66;;;12.72;100.00
35224;BME280;21367;51.930;8.112;2022-10-16T06:27:47;100677.31;;;12.78;100.00
35224;BME280;21367;51.930;8.112;2022-10-16T06:32:53;100682.63;;;12.82;100.00
35224;BME280;21367;51.930;8.112;2022-10-16T06:37:57;100698.00;;;12.79;100.00
35224;BME280;21367;51.930;8.112;2022-10-16T06:43:00;100707.59;;;12.83;100.00
35224;BME280;21367;51.930;8.112;2022-10-16T06:48:07;100716.38;;;12.88;100.00
35224;BME280;21367;51.930;8.112;2022-10-16T06:53:10;100730.44;;;12.98;100.00
35224;BME280;21367;51.930;8.112;2022-10-16T06:58:14;100734.50;;;13.17;100.00
35224;BME280;21367;51.930;8.112;2022-10-16T07:03:20;100742.66;;;13.29;100.00
35224;BME280;21367;51.930;8.112;2022-10-16T07:08:23;100748.31;;;13.45;100.00
35224;BME280;21367;51.930;8.112;2022-10-16T07:13:27;100755.00;;;13.67;100.00
35224;BME280;21367;51.930;8.112;2022-10-16T07:18:34;100752.31;;;13.94;100.00
35224;BME280;21367;51.930;8.112;2022-10-16T07:23:40;100753.00;;;13.86;100.00
35224;BME280;21367;51.930;8.112;2022-10-16T07:28:44;100772.81;;;13.87;100.00
35224;BME280;21367;51.930;8.112;2022-10-16T07:33:50;100793.81;;;13.98;100.00
35224;BME280;21367;51.930;8.112;2022-10-16T07:38:55;100794.50;;;13.93;100.00
35224;BME280;21367;51.930;8.112;2022-10-16T07:43:58;100815.50;;;13.75;100.00
35224;BME280;21367;51.930;8.112;2022-10-16T07:49:05;100825.88;;;13.76;100.00
35224;BME280;21367;51.930;8.112;2022-10-16T07:54:09;100825.97;;;13.79;100.00
35224;BME280;21367;51.930;8.112;2022-10-16T07:59:13;100820.44;;;13.96;100.00
35224;BME280;21367;51.930;8.112;2022-10-16T08:04:19;100830.09;;;14.01;100.00
35224;BME280;21367;51.930;8.112;2022-10-16T08:09:22;100840.72;;;14.10;100.00
35224;BME280;21367;51.930;8.112;2022-10-16T08:14:26;100841.28;;;14.30;100.00
35224;BME280;21367;51.930;8.112;2022-10-16T08:19:33;100848.47;;;14.41;100.00
35224;BME280;21367;51.930;8.112;2022-10-16T08:24:37;100853.03;;;14.49;100.00
35224;BME280;21367;51.930;8.112;2022-10-16T08:29:41;100857.78;;;14.64;100.00
35224;BME280;21367;51.930;8.112;2022-10-16T08:34:47;100868.56;;;14.79;100.00
35224;BME280;21367;51.930;8.112;2022-10-16T08:39:51;100874.09;;;14.92;100.00
35224;BME280;21367;51.930;8.112;2022-10-16T08:45:15;100893.25;;;14.98;100.00
35224;BME280;21367;51.930;8.112;2022-10-16T08:50:27;100901.09;;;15.01;100.00
35224;BME280;21367;51.930;8.112;2022-10-16T08:55:34;100902.94;;;15.07;100.00
35224;BME280;21367;51.930;8.112;2022-10-16T09:00:42;100911.88;;;15.18;100.00
35224;BME280;21367;51.930;8.112;2022-10-16T09:06:14;100900.72;;;15.21;100.00
35224;BME280;21367;51.930;8.112;2022-10-16T09:11:32;100911.66;;;15.42;100.00
35224;BME280;21367;51.930;8.112;2022-10-16T09:16:46;100920.97;;;15.36;100.00
35224;BME280;21367;51.930;8.112;2022-10-16T09:21:55;100921.25;;;15.46;98.64
35224;BME280;21367;51.930;8.112;2022-10-16T09:27:00;100938.59;;;15.50;97.46
35224;BME280;21367;51.930;8.112;2022-10-16T09:32:10;100950.00;;;15.57;95.14
35224;BME280;21367;51.930;8.112;2022-10-16T09:37:20;100927.19;;;15.76;95.56
35224;BME280;21367;51.930;8.112;2022-10-16T09:42:30;100936.81;;;15.80;94.37
35224;BME280;21367;51.930;8.112;2022-10-16T09:47:44;100926.69;;;15.90;92.80
35224;BME280;21367;51.930;8.112;2022-10-16T09:52:50;100935.59;;;16.02;92.28
35224;BME280;21367;51.930;8.112;2022-10-16T09:57:55;100948.00;;;16.15;91.08
35224;BME280;21367;51.930;8.112;2022-10-16T10:02:59;100947.34;;;16.24;89.75
35224;BME280;21367;51.930;8.112;2022-10-16T10:08:05;100956.63;;;16.52;88.88
35224;BME280;21367;51.930;8.112;2022-10-16T10:13:17;100953.25;;;16.57;85.82
35224;BME280;21367;51.930;8.112;2022-10-16T10:18:22;100963.50;;;16.51;84.08
35224;BME280;21367;51.930;8.112;2022-10-16T10:23:29;100959.16;;;16.49;85.09
35224;BME280;21367;51.930;8.112;2022-10-16T10:28:50;100974.31;;;16.32;84.22
35224;BME280;21367;51.930;8.112;2022-10-16T10:34:01;100974.38;;;16.35;84.81
35224;BME280;21367;51.930;8.112;2022-10-16T10:39:13;100977.50;;;16.58;81.65
35224;BME280;21367;51.930;8.112;2022-10-16T10:44:27;100982.44;;;16.46;81.87
35224;BME280;21367;51.930;8.112;2022-10-16T10:49:47;100983.09;;;16.76;81.57
35224;BME280;21367;51.930;8.112;2022-10-16T10:54:58;100991.47;;;17.04;79.61
35224;BME280;21367;51.930;8.112;2022-10-16T11:00:23;100981.31;;;17.15;77.75
35224;BME280;21367;51.930;8.112;2022-10-16T11:05:40;100988.31;;;17.20;77.38
35224;BME280;21367;51.930;8.112;2022-10-16T11:10:52;100998.47;;;17.52;75.60
35224;BME280;21367;51.930;8.112;2022-10-16T11:15:59;100990.97;;;17.69;76.53
35224;BME280;21367;51.930;8.112;2022-10-16T11:21:07;100992.34;;;17.98;74.57
35224;BME280;21367;51.930;8.112;2022-10-16T11:26:18;100999.47;;;18.09;76.48
35224;BME280;21367;51.930;8.112;2022-10-16T11:31:28;100994.53;;;18.24;74.40
35224;BME280;21367;51.930;8.112;2022-10-16T11:36:36;100994.47;;;18.21;73.80
35224;BME280;21367;51.930;8.112;2022-10-16T11:41:48;100997.31;;;18.38;73.67
35224;BME280;21367;51.930;8.112;2022-10-16T11:46:59;100998.22;;;18.40;72.49
35224;BME280;21367;51.930;8.112;2022-10-16T11:52:10;100996.81;;;18.62;71.81
35224;BME280;21367;51.930;8.112;2022-10-16T11:57:21;101010.06;;;18.79;71.29
35224;BME280;21367;51.930;8.112;2022-10-16T12:02:33;101001.47;;;18.84;70.81
35224;BME280;21367;51.930;8.112;2022-10-16T12:07:46;101006.31;;;19.27;68.93
35224;BME280;21367;51.930;8.112;2022-10-16T12:12:54;101003.06;;;19.48;67.88
35224;BME280;21367;51.930;8.112;2022-10-16T12:17:58;101019.41;;;18.66;71.80
35224;BME280;21367;51.930;8.112;2022-10-16T12:23:04;101008.91;;;19.25;68.90
35224;BME280;21367;51.930;8.112;2022-10-16T12:28:20;101022.34;;;20.67;65.63
35224;BME280;21367;51.930;8.112;2022-10-16T12:33:26;101018.91;;;20.76;63.61
35224;BME280;21367;51.930;8.112;2022-10-16T12:38:35;101026.06;;;21.15;62.08
35224;BME280;21367;51.930;8.112;2022-10-16T12:43:46;101032.97;;;20.98;62.15
35224;BME280;21367;51.930;8.112;2022-10-16T12:48:50;101033.91;;;21.20;62.84
35224;BME280;21367;51.930;8.112;2022-10-16T12:54:00;101037.50;;;21.43;61.02
35224;BME280;21367;51.930;8.112;2022-10-16T12:59:13;101033.19;;;21.71;59.92
35224;BME280;21367;51.930;8.112;2022-10-16T13:09:51;101042.75;;;21.40;59.10
35224;BME280;21367;51.930;8.112;2022-10-16T13:15:18;101042.72;;;21.43;59.97
35224;BME280;21367;51.930;8.112;2022-10-16T13:20:30;101047.19;;;21.69;58.64
35224;BME280;21367;51.930;8.112;2022-10-16T13:25:43;101052.63;;;20.42;62.80
35224;BME280;21367;51.930;8.112;2022-10-16T13:30:54;101059.41;;;20.19;64.78
35224;BME280;21367;51.930;8.112;2022-10-16T13:36:01;101062.97;;;20.30;65.67
35224;BME280;21367;51.930;8.112;2022-10-16T13:41:06;101058.47;;;21.62;60.56
35224;BME280;21367;51.930;8.112;2022-10-16T13:46:20;101066.94;;;21.01;61.30
35224;BME280;21367;51.930;8.112;2022-10-16T13:51:26;101055.97;;;22.17;60.62
35224;BME280;21367;51.930;8.112;2022-10-16T13:56:32;101063.59;;;21.33;61.54
35224;BME280;21367;51.930;8.112;2022-10-16T14:01:40;101076.75;;;21.51;61.51
35224;BME280;21367;51.930;8.112;2022-10-16T14:06:46;101087.06;;;21.20;60.04
35224;BME280;21367;51.930;8.112;2022-10-16T14:11:56;101089.00;;;20.21;63.23
35224;BME280;21367;51.930;8.112;2022-10-16T14:17:04;101084.22;;;19.75;65.42
35224;BME280;21367;51.930;8.112;2022-10-16T14:22:27;101074.09;;;21.43;61.76
35224;BME280;21367;51.930;8.112;2022-10-16T14:27:34;101087.31;;;23.01;56.79
35224;BME280;21367;51.930;8.112;2022-10-16T14:32:41;101081.09;;;23.28;55.81
35224;BME280;21367;51.930;8.112;2022-10-16T14:37:45;101078.59;;;22.09;59.75
35224;BME280;21367;51.930;8.112;2022-10-16T14:42:49;101082.59;;;20.90;63.60
35224;BME280;21367;51.930;8.112;2022-10-16T14:47:57;101070.81;;;22.20;60.61
35224;BME280;21367;51.930;8.112;2022-10-16T14:53:04;101062.06;;;24.31;52.91
35224;BME280;21367;51.930;8.112;2022-10-16T14:58:15;101064.63;;;25.22;51.19
35224;BME280;21367;51.930;8.112;2022-10-16T15:03:23;101080.88;;;23.65;53.14
35224;BME280;21367;51.930;8.112;2022-10-16T15:08:27;101088.97;;;21.52;59.28
35224;BME280;21367;51.930;8.112;2022-10-16T15:13:31;101097.69;;;23.30;55.44
35224;BME280;21367;51.930;8.112;2022-10-16T15:18:38;101101.03;;;23.66;54.68
35224;BME280;21367;51.930;8.112;2022-10-16T15:23:42;101096.91;;;21.93;59.85
35224;BME280;21367;51.930;8.112;2022-10-16T15:28:45;101103.97;;;20.42;65.86
35224;BME280;21367;51.930;8.112;2022-10-16T15:33:53;101094.44;;;19.60;70.45
35224;BME280;21367;51.930;8.112;2022-10-16T15:39:02;101095.13;;;18.80;74.22
35224;BME280;21367;51.930;8.112;2022-10-16T15:44:06;101085.19;;;18.54;76.54
35224;BME280;21367;51.930;8.112;2022-10-16T15:49:14;101083.69;;;18.17;78.63
35224;BME280;21367;51.930;8.112;2022-10-16T15:54:18;101097.00;;;17.85;79.92
35224;BME280;21367;51.930;8.112;2022-10-16T15:59:23;101115.31;;;17.90;80.25
35224;BME280;21367;51.930;8.112;2022-10-16T16:04:31;101107.03;;;17.65;82.08
35224;BME280;21367;51.930;8.112;2022-10-16T16:09:35;101104.91;;;17.46;83.51
35224;BME280;21367;51.930;8.112;2022-10-16T16:14:38;101108.78;;;17.25;85.48
35224;BME280;21367;51.930;8.112;2022-10-16T16:19:46;101115.38;;;17.08;86.45
35224;BME280;21367;51.930;8.112;2022-10-16T16:24:49;101106.66;;;17.06;87.06
35224;BME280;21367;51.930;8.112;2022-10-16T16:29:53;101115.19;;;17.00;87.55
35224;BME280;21367;51.930;8.112;2022-10-16T16:35:00;101115.47;;;16.76;88.03
35224;BME280;21367;51.930;8.112;2022-10-16T16:40:03;101106.47;;;16.62;89.80
35224;BME280;21367;51.930;8.112;2022-10-16T16:45:08;101111.63;;;16.60;89.40
35224;BME280;21367;51.930;8.112;2022-10-16T16:50:14;101122.56;;;16.47;90.31
35224;BME280;21367;51.930;8.112;2022-10-16T16:55:18;101118.63;;;16.28;91.32
35224;BME280;21367;51.930;8.112;2022-10-16T17:00:22;101132.16;;;16.16;92.17
35224;BME280;21367;51.930;8.112;2022-10-16T17:05:29;101140.44;;;16.03;92.42
35224;BME280;21367;51.930;8.112;2022-10-16T17:10:32;101150.31;;;15.85;93.96
35224;BME280;21367;51.930;8.112;2022-10-16T17:15:36;101162.03;;;15.70;94.32
35224;BME280;21367;51.930;8.112;2022-10-16T17:20:43;101166.84;;;15.60;94.95
35224;BME280;21367;51.930;8.112;2022-10-16T17:25:47;101174.91;;;15.40;96.79
35224;BME280;21367;51.930;8.112;2022-10-16T17:30:54;101173.81;;;15.61;95.62
35224;BME280;21367;51.930;8.112;2022-10-16T17:36:00;101183.38;;;15.35;97.04
35224;BME280;21367;51.930;8.112;2022-10-16T17:41:11;101151.53;;;15.09;99.21
35224;BME280;21367;51.930;8.112;2022-10-16T17:46:17;101164.59;;;15.13;98.91
35224;BME280;21367;51.930;8.112;2022-10-16T17:51:26;101182.31;;;15.01;100.00
35224;BME280;21367;51.930;8.112;2022-10-16T17:56:30;101201.09;;;14.94;100.00
35224;BME280;21367;51.930;8.112;2022-10-16T18:01:35;101201.97;;;14.94;100.00
35224;BME280;21367;51.930;8.112;2022-10-16T18:06:44;101202.69;;;14.89;100.00
35224;BME280;21367;51.930;8.112;2022-10-16T18:11:48;101211.03;;;14.81;100.00
35224;BME280;21367;51.930;8.112;2022-10-16T18:16:59;101226.94;;;14.92;100.00
35224;BME280;21367;51.930;8.112;2022-10-16T18:22:06;101220.47;;;14.79;100.00
35224;BME280;21367;51.930;8.112;2022-10-16T18:27:09;101220.06;;;14.67;100.00
35224;BME280;21367;51.930;8.112;2022-10-16T18:32:13;101211.78;;;14.52;100.00
35224;BME280;21367;51.930;8.112;2022-10-16T18:37:20;101208.66;;;14.61;100.00
35224;BME280;21367;51.930;8.112;2022-10-16T18:42:24;101201.47;;;14.53;100.00
35224;BME280;21367;51.930;8.112;2022-10-16T18:47:28;101189.91;;;14.44;100.00
35224;BME280;21367;51.930;8.112;2022-10-16T18:52:34;101191.63;;;14.43;100.00
35224;BME280;21367;51.930;8.112;2022-10-16T18:57:38;101188.56;;;14.53;100.00
35224;BME280;21367;51.930;8.112;2022-10-16T19:02:42;101190.38;;;14.56;100.00
35224;BME280;21367;51.930;8.112;2022-10-16T19:07:48;101181.63;;;14.28;100.00
35224;BME280;21367;51.930;8.112;2022-10-16T19:12:52;101183.50;;;14.32;100.00
35224;BME280;21367;51.930;8.112;2022-10-16T19:17:55;101188.06;;;14.40;100.00
35224;BME280;21367;51.930;8.112;2022-10-16T19:23:02;101185.16;;;14.54;100.00
35224;BME280;21367;51.930;8.112;2022-10-16T19:28:06;101196.47;;;14.58;100.00
35224;BME280;21367;51.930;8.112;2022-10-16T19:33:10;101205.78;;;14.53;100.00
35224;BME280;21367;51.930;8.112;2022-10-16T19:38:18;101208.53;;;14.57;100.00
35224;BME280;21367;51.930;8.112;2022-10-16T19:43:22;101202.28;;;14.51;100.00
35224;BME280;21367;51.930;8.112;2022-10-16T19:48:26;101188.75;;;14.60;100.00
35224;BME280;21367;51.930;8.112;2022-10-16T19:53:32;101207.16;;;14.43;100.00
35224;BME280;21367;51.930;8.112;2022-10-16T19:58:36;101211.16;;;14.59;100.00
35224;BME280;21367;51.930;8.112;2022-10-16T20:03:41;101221.91;;;14.46;100.00
35224;BME280;21367;51.930;8.112;2022-10-16T20:08:48;101249.69;;;14.27;100.00
35224;BME280;21367;51.930;8.112;2022-10-16T20:13:52;101252.41;;;14.54;100.00
35224;BME280;21367;51.930;8.112;2022-10-16T20:18:56;101263.38;;;14.49;100.00
35224;BME280;21367;51.930;8.112;2022-10-16T20:24:03;101277.78;;;14.66;100.00
35224;BME280;21367;51.930;8.112;2022-10-16T20:29:07;101264.41;;;14.52;100.00
35224;BME280;21367;51.930;8.112;2022-10-16T20:34:11;101241.13;;;14.52;100.00
35224;BME280;21367;51.930;8.112;2022-10-16T20:39:18;101245.75;;;14.61;100.00
35224;BME280;21367;51.930;8.112;2022-10-16T20:44:22;101267.19;;;14.58;100.00
35224;BME280;21367;51.930;8.112;2022-10-16T20:49:25;101270.56;;;14.56;100.00
35224;BME280;21367;51.930;8.112;2022-10-16T20:54:32;101273.13;;;14.32;100.00
35224;BME280;21367;51.930;8.112;2022-10-16T20:59:36;101275.00;;;14.60;100.00
35224;BME280;21367;51.930;8.112;2022-10-16T21:04:40;101275.09;;;14.15;100.00
35224;BME280;21367;51.930;8.112;2022-10-16T21:09:46;101265.84;;;14.22;100.00
35224;BME280;21367;51.930;8.112;2022-10-16T21:14:50;101266.50;;;14.16;100.00
35224;BME280;21367;51.930;8.112;2022-10-16T21:19:54;101255.91;;;14.32;100.00
35224;BME280;21367;51.930;8.112;2022-10-16T21:25:00;101251.13;;;13.95;100.00
35224;BME280;21367;51.930;8.112;2022-10-16T21:30:04;101263.00;;;13.68;100.00
35224;BME280;21367;51.930;8.112;2022-10-16T21:35:08;101250.69;;;13.84;100.00
35224;BME280;21367;51.930;8.112;2022-10-16T21:40:15;101246.50;;;13.41;100.00
35224;BME280;21367;51.930;8.112;2022-10-16T21:45:18;101252.19;;;13.55;100.00
35224;BME280;21367;51.930;8.112;2022-10-16T21:50:22;101258.19;;;13.77;100.00
35224;BME280;21367;51.930;8.112;2022-10-16T21:55:28;101255.41;;;13.50;100.00
35224;BME280;21367;51.930;8.112;2022-10-16T22:00:32;101239.88;;;13.48;100.00
35224;BME280;21367;51.930;8.112;2022-10-16T22:05:36;101234.34;;;13.61;100.00
35224;BME280;21367;51.930;8.112;2022-10-16T22:10:42;101227.53;;;13.63;100.00
35224;BME280;21367;51.930;8.112;2022-10-16T22:15:49;101225.28;;;13.50;100.00
35224;BME280;21367;51.930;8.112;2022-10-16T22:20:54;101222.31;;;13.62;100.00
35224;BME280;21367;51.930;8.112;2022-10-16T22:26:02;101229.91;;;13.57;100.00
35224;BME280;21367;51.930;8.112;2022-10-16T22:31:08;101224.81;;;13.38;100.00
35224;BME280;21367;51.930;8.112;2022-10-16T22:36:14;101225.41;;;13.31;100.00
35224;BME280;21367;51.930;8.112;2022-10-16T22:41:20;101216.50;;;13.24;100.00
35224;BME280;21367;51.930;8.112;2022-10-16T22:46:26;101226.94;;;13.26;100.00
35224;BME280;21367;51.930;8.112;2022-10-16T22:51:30;101212.69;;;13.14;100.00
35224;BME280;21367;51.930;8.112;2022-10-16T22:56:36;101216.09;;;13.13;100.00
35224;BME280;21367;51.930;8.112;2022-10-16T23:01:40;101221.06;;;13.09;100.00
35224;BME280;21367;51.930;8.112;2022-10-16T23:06:44;101228.50;;;13.01;100.00
35224;BME280;21367;51.930;8.112;2022-10-16T23:11:51;101230.34;;;12.83;100.00
35224;BME280;21367;51.930;8.112;2022-10-16T23:16:54;101223.84;;;12.92;100.00
35224;BME280;21367;51.930;8.112;2022-10-16T23:21:58;101230.22;;;12.80;100.00
35224;BME280;21367;51.930;8.112;2022-10-16T23:27:04;101218.28;;;12.82;100.00
35224;BME280;21367;51.930;8.112;2022-10-16T23:32:08;101215.19;;;12.69;100.00
35224;BME280;21367;51.930;8.112;2022-10-16T23:37:12;101210.03;;;12.69;100.00
35224;BME280;21367;51.930;8.112;2022-10-16T23:42:18;101210.56;;;12.62;100.00
35224;BME280;21367;51.930;8.112;2022-10-16T23:47:22;101206.47;;;12.67;100.00
35224;BME280;21367;51.930;8.112;2022-10-16T23:52:25;101209.81;;;12.65;100.00
35224;BME280;21367;51.930;8.112;2022-10-16T23:57:31;101210.38;;;12.58;100.00
